Time;durP1;ratioP1;P1;durP2;ratioP2;P2;SDS_P1;SDS_P2;PMS_P1;PMS_P2;Temp;Humidity;BMP_temperature;BMP_pressure;BME280_temperature;BME280_humidity;BME280_pressure;Samples;Min_cycle;Max_cycle;Signal;HPM_P1;HPM_P2
2022/07/26 00:00:04;;;;;;;15.05;9.65;;;;;;;19.93;nan;98748.25;5062589;28;20035;-71
2022/07/26 00:02:29;;;;;;;17.33;8.73;;;;;;;19.94;nan;98754.50;5064662;28;20036;-69
2022/07/26 00:04:54;;;;;;;13.68;9.15;;;;;;;19.90;nan;98756.75;5059690;28;20047;-70
2022/07/26 00:07:19;;;;;;;11.75;8.50;;;;;;;19.89;nan;98763.19;5025001;28;20127;-66
2022/07/26 00:09:44;;;;;;;14.15;8.68;;;;;;;19.89;nan;98762.34;5019832;28;20036;-68
2022/07/26 00:12:09;;;;;;;14.70;8.60;;;;;;;19.87;nan;98756.28;5044243;28;20114;-69
2022/07/26 00:14:34;;;;;;;18.98;9.30;;;;;;;19.83;nan;98763.97;5054937;28;20040;-66
2022/07/26 00:16:58;;;;;;;13.27;9.40;;;;;;;19.81;nan;98749.78;5054746;28;20046;-67
2022/07/26 00:19:23;;;;;;;14.93;9.40;;;;;;;19.79;nan;98756.41;5020474;28;20151;-71
2022/07/26 00:22:32;;;;;;;12.95;9.38;;;;;;;19.77;nan;98761.16;5059538;28;20118;-71
2022/07/26 00:24:33;;;;;;;10.95;8.60;;;;;;;19.75;nan;98753.22;5063357;28;20046;-64
2022/07/26 00:26:57;;;;;;;11.10;8.95;;;;;;;19.69;nan;98754.00;5062698;28;20035;-66
2022/07/26 00:29:23;;;;;;;12.85;9.63;;;;;;;19.66;nan;98751.66;5070851;28;20056;-64
2022/07/26 00:31:47;;;;;;;15.65;9.43;;;;;;;19.61;nan;98753.28;5066066;28;20451;-65
2022/07/26 00:34:12;;;;;;;12.77;8.73;;;;;;;19.54;nan;98747.75;5064702;28;20127;-64
2022/07/26 00:36:37;;;;;;;13.82;10.00;;;;;;;19.46;nan;98753.25;5064530;28;20044;-64
2022/07/26 00:39:01;;;;;;;13.60;9.00;;;;;;;19.43;nan;98753.59;5066046;28;20039;-67
2022/07/26 00:41:26;;;;;;;15.43;9.05;;;;;;;19.40;nan;98748.59;5066216;28;20039;-67
2022/07/26 00:43:58;;;;;;;11.23;8.65;;;;;;;19.46;nan;98745.97;5064622;28;20047;-65
2022/07/26 00:46:24;;;;;;;18.00;9.85;;;;;;;19.40;nan;98741.34;5065236;28;20062;-65
2022/07/26 00:48:48;;;;;;;16.42;10.25;;;;;;;19.38;nan;98748.78;5063454;28;20092;-65
2022/07/26 00:51:13;;;;;;;15.27;9.77;;;;;;;19.37;nan;98740.88;5064562;28;20039;-66
2022/07/26 00:53:38;;;;;;;15.68;11.18;;;;;;;19.36;nan;98748.13;5064540;28;20100;-63
2022/07/26 00:56:03;;;;;;;16.27;10.95;;;;;;;19.36;nan;98747.28;5065746;28;20046;-65
2022/07/26 00:58:28;;;;;;;16.25;10.27;;;;;;;19.35;nan;98737.50;5038696;28;20040;-63
2022/07/26 01:00:52;;;;;;;11.77;10.05;;;;;;;19.36;nan;98739.19;5054333;28;20046;-64
2022/07/26 01:03:17;;;;;;;15.55;10.45;;;;;;;19.34;nan;98741.22;5044926;28;20051;-66
2022/07/26 01:05:42;;;;;;;14.75;10.82;;;;;;;19.32;nan;98740.56;4999238;28;20032;-66
2022/07/26 01:08:07;;;;;;;16.73;11.27;;;;;;;19.30;nan;98742.66;5033703;28;20509;-65
2022/07/26 01:10:31;;;;;;;17.52;11.23;;;;;;;19.29;nan;98739.09;4999629;28;20036;-65
2022/07/26 01:12:56;;;;;;;13.57;10.35;;;;;;;19.30;nan;98738.06;5034306;28;20616;-65
2022/07/26 01:15:22;;;;;;;13.13;9.80;;;;;;;19.28;nan;98732.03;5034252;28;20040;-76
2022/07/26 01:17:47;;;;;;;16.58;10.68;;;;;;;19.26;nan;98735.94;5034559;28;20064;-75
2022/07/26 01:20:12;;;;;;;15.88;11.25;;;;;;;19.24;nan;98736.09;5016045;28;20036;-74
2022/07/26 01:22:37;;;;;;;16.67;10.57;;;;;;;19.21;nan;98731.91;5034372;28;20052;-67
2022/07/26 01:25:03;;;;;;;13.55;10.05;;;;;;;19.21;nan;98736.47;5017558;28;20042;-66
2022/07/26 01:27:28;;;;;;;16.90;11.00;;;;;;;19.20;nan;98732.09;5037760;28;20129;-65
2022/07/26 01:29:53;;;;;;;13.23;10.43;;;;;;;19.17;nan;98736.03;5019565;28;20056;-70
2022/07/26 01:32:18;;;;;;;16.75;10.90;;;;;;;19.16;nan;98737.06;5019387;28;20044;-65
2022/07/26 01:34:43;;;;;;;14.50;9.93;;;;;;;19.15;nan;98740.78;5057174;28;20494;-66
2022/07/26 01:37:08;;;;;;;17.52;10.88;;;;;;;19.15;nan;98743.47;5058093;28;20921;-64
2022/07/26 01:39:33;;;;;;;14.10;9.90;;;;;;;19.13;nan;98741.97;5037309;28;20498;-65
2022/07/26 01:41:58;;;;;;;15.85;10.60;;;;;;;19.12;nan;98749.25;5037563;28;20083;-67
2022/07/26 01:44:23;;;;;;;14.50;10.98;;;;;;;19.12;nan;98749.25;5037208;28;20503;-67
2022/07/26 01:46:48;;;;;;;13.10;10.32;;;;;;;19.11;nan;98750.28;5037437;28;20075;-67
2022/07/26 01:49:13;;;;;;;14.52;11.25;;;;;;;19.12;nan;98757.34;5019890;28;20503;-71
2022/07/26 01:51:38;;;;;;;16.42;11.13;;;;;;;19.12;nan;98759.22;5037245;28;20040;-68
2022/07/26 01:54:02;;;;;;;13.20;10.02;;;;;;;19.12;nan;98745.69;5037005;28;20044;-65
2022/07/26 01:56:27;;;;;;;15.65;11.27;;;;;;;19.12;nan;98759.22;5037045;28;20047;-65
2022/07/26 01:58:52;;;;;;;17.25;11.43;;;;;;;19.13;nan;98759.03;5037451;28;20147;-64
2022/07/26 02:01:17;;;;;;;16.15;11.13;;;;;;;19.13;nan;98758.19;5020347;28;20048;-70
2022/07/26 02:03:41;;;;;;;16.02;11.10;;;;;;;19.13;nan;98761.72;5032585;28;20079;-65
2022/07/26 02:06:06;;;;;;;14.70;10.38;;;;;;;19.16;nan;98766.78;5056497;28;20507;-65
2022/07/26 02:08:31;;;;;;;14.48;10.90;;;;;;;19.18;nan;98766.59;5057072;28;20565;-65
2022/07/26 02:10:59;;;;;;;17.75;11.52;;;;;;;19.19;nan;98766.38;5054877;28;20557;-65
2022/07/26 02:13:24;;;;;;;14.55;11.40;;;;;;;19.21;nan;98764.34;5038574;28;20572;-66
2022/07/26 02:15:49;;;;;;;12.73;10.68;;;;;;;19.22;nan;98765.19;5018811;28;20952;-64
2022/07/26 02:18:14;;;;;;;15.98;10.88;;;;;;;19.25;nan;98764.81;5036846;28;20044;-71
2022/07/26 02:20:38;;;;;;;15.15;10.55;;;;;;;19.30;nan;98758.88;5037116;28;20106;-69
2022/07/26 02:23:04;;;;;;;18.42;11.63;;;;;;;19.33;nan;98758.47;5020041;28;20401;-69
2022/07/26 02:25:29;;;;;;;16.77;11.00;;;;;;;19.38;nan;98753.34;5037618;28;20388;-72
2022/07/26 02:27:54;;;;;;;16.35;11.18;;;;;;;19.44;nan;98766.09;5037175;28;20072;-69
2022/07/26 02:30:19;;;;;;;16.02;10.68;;;;;;;19.52;nan;98772.31;5036270;28;20111;-70
2022/07/26 02:32:44;;;;;;;16.75;10.52;;;;;;;19.60;nan;98773.22;5040474;28;20123;-70
2022/07/26 02:35:09;;;;;;;16.13;10.88;;;;;;;19.68;nan;98776.66;5057765;28;20048;-72
2022/07/26 02:37:34;;;;;;;16.38;10.70;;;;;;;19.77;nan;98780.91;5056204;28;20039;-71
2022/07/26 02:39:59;;;;;;;21.88;11.25;;;;;;;19.86;nan;98779.78;5056896;28;20092;-70
2022/07/26 02:42:23;;;;;;;13.85;10.77;;;;;;;19.95;nan;98783.25;5057250;28;20047;-69
2022/07/26 02:44:48;;;;;;;16.02;11.40;;;;;;;20.06;nan;98787.31;5056936;28;20055;-71
2022/07/26 02:47:13;;;;;;;15.15;11.30;;;;;;;20.13;nan;98783.63;5057320;28;20040;-72
2022/07/26 02:49:38;;;;;;;21.75;10.65;;;;;;;20.22;nan;98795.19;5057571;28;20048;-71
2022/07/26 02:52:02;;;;;;;16.40;12.38;;;;;;;20.33;nan;98788.41;5057853;28;20041;-68
2022/07/26 02:54:27;;;;;;;17.15;11.77;;;;;;;20.43;nan;98791.72;5057363;28;20051;-69
2022/07/26 02:56:52;;;;;;;20.73;11.93;;;;;;;20.53;nan;98793.06;5054125;28;20127;-73
2022/07/26 02:59:17;;;;;;;16.05;11.40;;;;;;;20.62;nan;98796.47;5054234;28;20059;-64
2022/07/26 03:01:41;;;;;;;17.42;11.85;;;;;;;20.71;nan;98791.75;5053374;28;20051;-63
2022/07/26 03:04:06;;;;;;;20.98;12.02;;;;;;;20.81;nan;98801.22;5039914;28;20108;-63
2022/07/26 03:06:31;;;;;;;21.67;12.45;;;;;;;20.91;nan;98796.28;5058614;28;20048;-65
2022/07/26 03:08:56;;;;;;;21.65;11.82;;;;;;;20.99;nan;98804.25;5061527;28;20102;-65
2022/07/26 03:11:21;;;;;;;20.02;12.15;;;;;;;21.06;nan;98801.63;5077936;28;20075;-64
2022/07/26 03:13:45;;;;;;;15.75;11.88;;;;;;;21.11;nan;98807.28;5078694;28;20074;-64
2022/07/26 03:16:10;;;;;;;20.17;12.13;;;;;;;21.19;nan;98809.06;5079275;28;20093;-68
2022/07/26 03:18:35;;;;;;;16.27;10.95;;;;;;;21.24;nan;98812.00;5080111;28;20071;-64
2022/07/26 03:20:59;;;;;;;16.17;11.27;;;;;;;21.32;nan;98814.56;5060170;28;20049;-68
2022/07/26 03:23:24;;;;;;;16.75;11.57;;;;;;;21.40;nan;98816.28;5076329;28;20379;-72
2022/07/26 03:25:49;;;;;;;16.20;10.25;;;;;;;21.44;nan;98817.56;5045662;28;20503;-72
2022/07/26 03:28:14;;;;;;;15.98;11.48;;;;;;;21.45;nan;98819.22;5065819;28;20447;-67
2022/07/26 03:30:39;;;;;;;15.98;11.75;;;;;;;21.53;nan;98827.22;5064034;28;20410;-69
2022/07/26 03:33:04;;;;;;;16.77;11.77;;;;;;;21.58;nan;98828.28;5064263;28;20035;-69
2022/07/26 03:35:28;;;;;;;16.65;11.10;;;;;;;21.69;nan;98827.72;5065484;28;20128;-69
2022/07/26 03:37:53;;;;;;;16.80;10.85;;;;;;;21.84;nan;98829.47;5044919;28;20031;-69
2022/07/26 03:40:18;;;;;;;18.88;11.45;;;;;;;21.98;nan;98826.66;5076042;28;20043;-69
2022/07/26 03:42:44;;;;;;;14.93;10.35;;;;;;;22.14;nan;98824.59;5076639;28;20039;-68
2022/07/26 03:45:10;;;;;;;20.48;11.27;;;;;;;22.26;nan;98829.25;5078250;28;20054;-69
2022/07/26 03:47:36;;;;;;;17.35;11.07;;;;;;;22.39;nan;98823.03;5057875;28;20252;-69
2022/07/26 03:50:01;;;;;;;18.63;12.07;;;;;;;22.55;nan;98821.81;5075960;28;20043;-69
2022/07/26 03:52:25;;;;;;;17.08;10.63;;;;;;;22.69;nan;98821.59;5076359;28;20039;-70
2022/07/26 03:54:50;;;;;;;15.75;11.85;;;;;;;22.84;nan;98824.16;5077888;28;20051;-68
2022/07/26 03:57:15;;;;;;;21.45;11.32;;;;;;;23.01;nan;98827.34;5076805;28;20043;-69
2022/07/26 03:59:39;;;;;;;16.33;11.13;;;;;;;23.16;nan;98820.63;5058956;28;20043;-68
2022/07/26 04:02:04;;;;;;;15.52;11.35;;;;;;;23.30;nan;98816.00;5059404;28;20188;-70
2022/07/26 04:04:29;;;;;;;22.48;10.90;;;;;;;23.43;nan;98816.00;5077684;28;20047;-69
2022/07/26 04:06:55;;;;;;;16.58;10.50;;;;;;;23.58;nan;98812.22;5077961;28;20090;-70
2022/07/26 04:09:20;;;;;;;14.77;9.88;;;;;;;23.70;nan;98824.94;5059842;28;20047;-70
2022/07/26 04:11:46;;;;;;;15.43;10.25;;;;;;;23.84;nan;98817.56;5077486;28;20088;-70
2022/07/26 04:14:11;;;;;;;15.40;10.40;;;;;;;23.98;nan;98816.50;5077612;28;20043;-70
2022/07/26 04:16:36;;;;;;;14.13;10.48;;;;;;;24.09;nan;98818.53;5058367;28;20039;-69
2022/07/26 04:19:01;;;;;;;15.95;11.55;;;;;;;24.18;nan;98822.69;5075948;28;20039;-70
2022/07/26 04:21:26;;;;;;;18.17;11.23;;;;;;;24.31;nan;98812.78;5076059;28;20061;-69
2022/07/26 04:23:51;;;;;;;16.90;10.30;;;;;;;24.41;nan;98818.59;5076162;28;20044;-70
2022/07/26 04:26:16;;;;;;;19.50;11.15;;;;;;;24.48;nan;98820.25;5040763;28;20058;-70
2022/07/26 04:28:42;;;;;;;14.63;10.48;;;;;;;24.61;nan;98819.31;5057703;28;20051;-70
2022/07/26 04:31:07;;;;;;;17.30;11.23;;;;;;;24.81;nan;98819.19;5075819;28;20077;-71
2022/07/26 04:33:32;;;;;;;17.85;10.55;;;;;;;25.01;nan;98813.63;5041135;28;20112;-71
2022/07/26 04:35:57;;;;;;;19.52;11.20;;;;;;;25.02;nan;98810.66;5075852;28;20043;-69
2022/07/26 04:38:22;;;;;;;13.80;10.32;;;;;;;24.96;nan;98815.09;5078572;28;20122;-71
2022/07/26 04:40:48;;;;;;;16.48;11.18;;;;;;;24.93;nan;98812.84;5078579;28;20067;-71
2022/07/26 04:43:12;;;;;;;15.50;10.85;;;;;;;24.99;nan;98804.81;5077824;28;20465;-71
2022/07/26 04:45:37;;;;;;;15.48;9.88;;;;;;;25.13;nan;98817.28;5077463;28;20058;-70
2022/07/26 04:48:02;;;;;;;15.35;11.20;;;;;;;25.25;nan;98816.34;5076780;28;20051;-71
2022/07/26 04:50:27;;;;;;;14.57;11.57;;;;;;;25.41;nan;98825.81;5076846;28;20050;-71
2022/07/26 04:52:53;;;;;;;28.67;11.50;;;;;;;25.54;nan;98831.16;5079605;28;20043;-71
2022/07/26 04:55:18;;;;;;;17.70;10.82;;;;;;;25.61;nan;98828.41;5078396;28;20063;-71
2022/07/26 04:57:43;;;;;;;13.38;10.10;;;;;;;25.70;nan;98828.94;5079170;28;20043;-71
2022/07/26 05:00:10;;;;;;;20.63;11.88;;;;;;;25.77;nan;98837.88;5080671;28;20900;-70
2022/07/26 05:02:35;;;;;;;21.30;11.43;;;;;;;25.81;nan;98839.13;5082702;28;20039;-72
2022/07/26 05:05:00;;;;;;;17.50;11.27;;;;;;;25.87;nan;98840.91;5082235;28;20042;-70
2022/07/26 05:07:25;;;;;;;21.45;11.77;;;;;;;25.93;nan;98835.41;5062333;28;20048;-70
2022/07/26 05:09:50;;;;;;;13.75;11.18;;;;;;;26.07;nan;98830.63;5081751;28;20032;-70
2022/07/26 05:12:14;;;;;;;17.70;10.88;;;;;;;26.27;nan;98828.50;5081512;28;20047;-69
2022/07/26 05:14:39;;;;;;;16.83;11.48;;;;;;;26.39;nan;98829.38;5081516;28;20039;-71
2022/07/26 05:17:05;;;;;;;16.98;10.93;;;;;;;26.53;nan;98834.63;5080350;28;20035;-70
2022/07/26 05:19:29;;;;;;;13.10;10.50;;;;;;;26.67;nan;98826.03;5061784;28;20066;-70
2022/07/26 05:21:54;;;;;;;16.77;11.38;;;;;;;26.80;nan;98832.38;5062837;28;20035;-71
2022/07/26 05:24:19;;;;;;;21.50;10.75;;;;;;;26.91;nan;98828.81;5045659;28;20130;-70
2022/07/26 05:26:44;;;;;;;16.27;10.82;;;;;;;27.03;nan;98838.75;5079758;28;20040;-70
2022/07/26 05:29:09;;;;;;;17.40;11.45;;;;;;;27.03;nan;98846.97;5079521;28;20043;-71
2022/07/26 05:31:33;;;;;;;17.30;10.57;;;;;;;27.06;nan;98846.50;5042077;28;20044;-71
2022/07/26 05:33:58;;;;;;;15.68;10.85;;;;;;;27.14;nan;98839.84;5059833;28;20040;-70
2022/07/26 05:36:23;;;;;;;14.20;10.88;;;;;;;27.26;nan;98840.69;5059540;28;20051;-70
2022/07/26 05:38:48;;;;;;;16.60;11.18;;;;;;;27.41;nan;98837.50;5041360;28;20051;-69
2022/07/26 05:41:12;;;;;;;15.25;11.27;;;;;;;27.59;nan;98828.34;5060373;28;20036;-70
2022/07/26 05:43:37;;;;;;;15.63;10.30;;;;;;;27.78;nan;98836.19;5042009;28;20509;-71
2022/07/26 05:46:02;;;;;;;15.95;11.45;;;;;;;27.97;nan;98839.63;5060487;28;20472;-72
2022/07/26 05:48:27;;;;;;;15.07;11.25;;;;;;;28.07;nan;98848.06;5061085;28;20473;-72
2022/07/26 05:50:52;;;;;;;16.10;11.55;;;;;;;28.21;nan;98834.13;5060376;28;20422;-70
2022/07/26 05:53:16;;;;;;;14.45;11.13;;;;;;;28.37;nan;98836.06;5043760;28;20051;-69
2022/07/26 05:55:41;;;;;;;20.95;12.25;;;;;;;28.54;nan;98836.97;5062092;28;20048;-70
2022/07/26 05:58:06;;;;;;;19.55;12.15;;;;;;;28.79;nan;98833.88;5060097;28;20039;-71
2022/07/26 06:00:31;;;;;;;24.65;11.90;;;;;;;29.12;nan;98841.34;5059634;28;20055;-71
2022/07/26 06:02:56;;;;;;;16.23;11.07;;;;;;;29.49;nan;98831.53;5059741;28;20053;-72
2022/07/26 06:05:21;;;;;;;17.85;11.13;;;;;;;30.01;nan;98830.38;5042041;28;20093;-71
2022/07/26 06:07:46;;;;;;;14.45;10.68;;;;;;;30.65;nan;98892.78;5060402;28;20039;-71
2022/07/26 06:10:11;;;;;;;14.95;11.68;;;;;;;31.50;nan;98844.31;5059674;28;20040;-70
2022/07/26 06:12:36;;;;;;;17.70;11.05;;;;;;;32.32;nan;98835.44;5059733;28;20505;-71
2022/07/26 06:15:01;;;;;;;14.38;10.32;;;;;;;33.11;nan;98842.53;5059813;28;20063;-70
2022/07/26 06:17:28;;;;;;;18.42;10.93;;;;;;;33.91;nan;98835.31;5059709;28;20040;-71
2022/07/26 06:19:53;;;;;;;17.52;11.20;;;;;;;34.70;nan;98836.38;5059913;28;20043;-70
2022/07/26 06:22:18;;;;;;;15.48;10.82;;;;;;;35.41;nan;98906.03;5059273;28;20494;-70
2022/07/26 06:24:43;;;;;;;14.80;10.77;;;;;;;36.12;nan;98899.81;5042085;28;20047;-69
2022/07/26 06:27:07;;;;;;;14.60;11.68;;;;;;;36.76;nan;98906.03;5042558;28;20086;-69
2022/07/26 06:29:32;;;;;;;21.52;12.20;;;;;;;37.28;nan;98903.06;5064468;28;20056;-68
2022/07/26 06:31:57;;;;;;;15.40;10.90;;;;;;;37.78;nan;98840.19;5062045;28;20047;-70
2022/07/26 06:34:22;;;;;;;19.60;12.00;;;;;;;38.25;nan;98846.53;5062407;28;20043;-70
2022/07/26 06:36:47;;;;;;;14.10;11.20;;;;;;;38.61;nan;98849.38;5062729;28;20405;-70
2022/07/26 06:39:12;;;;;;;18.58;12.73;;;;;;;39.07;nan;98854.75;5078905;28;20067;-71
2022/07/26 06:41:36;;;;;;;17.08;12.25;;;;;;;39.42;nan;98843.88;5078676;28;20052;-70
2022/07/26 06:44:01;;;;;;;13.00;11.50;;;;;;;39.79;nan;98849.03;5078487;28;20093;-70
2022/07/26 06:46:26;;;;;;;16.35;12.35;;;;;;;40.21;nan;98846.78;5059648;28;20038;-70
2022/07/26 06:48:51;;;;;;;17.15;12.20;;;;;;;40.53;nan;98849.19;5059170;28;20040;-70
2022/07/26 06:51:16;;;;;;;13.02;11.57;;;;;;;40.76;nan;98843.50;5077437;28;20051;-69
2022/07/26 06:53:41;;;;;;;17.38;11.98;;;;;;;41.05;nan;98838.09;5042325;28;20050;-70
2022/07/26 06:56:06;;;;;;;15.57;12.07;;;;;;;41.31;nan;98847.28;5077375;28;20046;-71
2022/07/26 06:58:31;;;;;;;15.88;12.05;;;;;;;41.64;nan;98842.00;5077203;28;20054;-69
2022/07/26 07:00:56;;;;;;;14.27;11.55;;;;;;;41.92;nan;98834.00;5059186;28;20043;-70
2022/07/26 07:03:20;;;;;;;17.30;12.57;;;;;;;42.18;nan;98835.91;5042015;28;20043;-70
2022/07/26 07:05:46;;;;;;;15.88;12.48;;;;;;;42.49;nan;98844.81;5077479;28;20470;-71
2022/07/26 07:08:11;;;;;;;16.42;12.48;;;;;;;42.20;nan;98836.38;5077365;28;20043;-70
2022/07/26 07:10:36;;;;;;;16.77;11.88;;;;;;;42.16;nan;98835.41;5060714;28;20047;-70
2022/07/26 07:13:00;;;;;;;16.92;13.20;;;;;;;42.02;nan;98828.06;5079011;28;20031;-71
2022/07/26 07:15:25;;;;;;;16.55;11.77;;;;;;;42.34;nan;98826.56;5077779;28;20407;-73
2022/07/26 07:17:51;;;;;;;14.43;12.00;;;;;;;42.93;nan;98837.75;5077098;28;20492;-71
2022/07/26 07:20:16;;;;;;;16.45;12.55;;;;;;;43.68;nan;98840.56;5077010;28;20044;-70
2022/07/26 07:22:41;;;;;;;16.00;11.68;;;;;;;44.09;nan;98840.41;5076034;28;20051;-71
2022/07/26 07:25:06;;;;;;;19.52;13.20;;;;;;;44.30;nan;98843.09;5076782;28;20039;-71
2022/07/26 07:27:31;;;;;;;13.20;11.88;;;;;;;44.27;nan;98848.59;5058490;28;20043;-70
2022/07/26 07:29:56;;;;;;;18.70;13.18;;;;;;;44.16;nan;98835.00;5076692;28;20058;-70
2022/07/26 07:32:20;;;;;;;14.80;13.38;;;;;;;43.99;nan;98840.03;5058387;28;20038;-71
2022/07/26 07:34:46;;;;;;;17.08;12.63;;;;;;;43.67;nan;98844.53;5058286;28;20039;-70
2022/07/26 07:37:11;;;;;;;13.80;12.60;;;;;;;43.73;nan;98843.13;5055415;28;20119;-70
2022/07/26 07:39:36;;;;;;;15.27;13.00;;;;;;;43.96;nan;98847.19;5020632;28;20131;-71
2022/07/26 07:42:01;;;;;;;15.93;12.43;;;;;;;44.36;nan;98844.50;5037477;28;20040;-69
2022/07/26 07:44:26;;;;;;;14.50;13.15;;;;;;;44.35;nan;98844.84;5034245;28;20036;-69
2022/07/26 07:46:51;;;;;;;16.83;12.38;;;;;;;43.70;nan;98850.25;5017211;28;20567;-69
2022/07/26 07:49:16;;;;;;;13.77;12.55;;;;;;;43.18;nan;98844.34;5035728;28;20503;-69
2022/07/26 07:51:41;;;;;;;13.98;12.48;;;;;;;42.94;nan;98838.56;5035147;28;20072;-70
2022/07/26 07:54:06;;;;;;;18.40;12.77;;;;;;;43.21;nan;98837.22;5017968;28;20048;-71
2022/07/26 07:56:31;;;;;;;14.05;12.85;;;;;;;43.60;nan;98841.47;5035825;28;20559;-70
2022/07/26 07:58:55;;;;;;;14.75;13.20;;;;;;;44.06;nan;98829.84;5018545;28;20052;-72
2022/07/26 08:01:20;;;;;;;15.48;12.63;;;;;;;44.27;nan;98826.94;5018179;28;20434;-71
2022/07/26 08:03:45;;;;;;;17.30;13.45;;;;;;;44.35;nan;98839.25;5036352;28;20044;-72
2022/07/26 08:06:10;;;;;;;16.17;12.63;;;;;;;44.34;nan;98834.78;5037318;28;20114;-71
2022/07/26 08:08:36;;;;;;;16.80;13.95;;;;;;;44.29;nan;98843.44;5057510;28;20044;-71
2022/07/26 08:11:01;;;;;;;13.10;11.90;;;;;;;44.10;nan;98833.63;5056981;28;20031;-72
2022/07/26 08:13:26;;;;;;;14.68;12.77;;;;;;;43.99;nan;98832.44;5038987;28;20040;-71
2022/07/26 08:15:52;;;;;;;17.73;12.60;;;;;;;44.18;nan;98837.47;5056701;28;20036;-71
2022/07/26 08:18:18;;;;;;;16.33;12.98;;;;;;;44.51;nan;98837.34;5056133;28;20130;-71
2022/07/26 08:20:43;;;;;;;14.52;13.20;;;;;;;45.01;nan;98844.56;5037238;28;20088;-71
2022/07/26 08:23:07;;;;;;;16.60;13.15;;;;;;;45.47;nan;98837.47;5037103;28;20185;-70
2022/07/26 08:25:32;;;;;;;14.68;12.88;;;;;;;45.61;nan;98842.66;5037180;28;20036;-71
2022/07/26 08:27:57;;;;;;;18.52;12.52;;;;;;;46.13;nan;98843.28;5019995;28;20059;-71
2022/07/26 08:30:21;;;;;;;14.43;12.95;;;;;;;46.83;nan;98839.75;5036378;28;20055;-71
2022/07/26 08:32:46;;;;;;;15.70;14.10;;;;;;;47.52;nan;98841.63;5036996;28;20050;-72
2022/07/26 08:35:11;;;;;;;16.73;15.00;;;;;;;48.39;nan;98857.75;5018990;28;20039;-74
2022/07/26 08:37:36;;;;;;;16.85;15.45;;;;;;;49.21;nan;98853.31;5037087;28;20048;-71
2022/07/26 08:40:01;;;;;;;18.98;17.48;;;;;;;49.79;nan;98847.91;5055349;28;20040;-70
2022/07/26 08:42:28;;;;;;;18.90;17.02;;;;;;;50.29;nan;98853.25;5056158;28;20151;-71
2022/07/26 08:44:52;;;;;;;19.73;17.95;;;;;;;50.69;nan;98860.84;5037883;28;20093;-70
2022/07/26 08:47:22;;;;;;;18.95;17.48;;;;;;;51.19;nan;98861.94;5055355;28;20083;-70
2022/07/26 08:49:46;;;;;;;20.85;18.90;;;;;;;51.61;nan;98847.09;5055413;28;20054;-70
2022/07/26 08:52:13;;;;;;;22.90;21.35;;;;;;;51.99;nan;98853.28;5057570;28;20052;-71
2022/07/26 08:54:49;;;;;;;25.05;23.35;;;;;;;52.51;nan;98886.59;5061786;28;20089;-71
2022/07/26 08:57:14;;;;;;;22.52;21.13;;;;;;;52.35;nan;98883.38;5060812;28;20044;-71
2022/07/26 08:59:41;;;;;;;26.52;24.63;;;;;;;52.71;nan;98880.50;5023648;28;20044;-73
2022/07/26 09:02:09;;;;;;;28.13;26.00;;;;;;;53.13;nan;98897.50;5054693;28;20048;-71
2022/07/26 09:04:38;;;;;;;27.52;25.65;;;;;;;53.52;nan;98899.38;5054576;28;20044;-71
2022/07/26 09:07:12;;;;;;;28.38;26.20;;;;;;;54.03;nan;98903.59;5036717;28;20066;-72
2022/07/26 09:09:54;;;;;;;30.65;28.30;;;;;;;53.79;nan;98900.47;5054608;28;20565;-71
2022/07/26 09:12:19;;;;;;;28.98;26.63;;;;;;;52.90;nan;98888.63;5054617;28;20043;-72
2022/07/26 09:14:45;;;;;;;28.67;26.95;;;;;;;52.37;nan;98885.81;5054464;28;20494;-72
2022/07/26 09:17:10;;;;;;;27.02;25.35;;;;;;;52.67;nan;98893.94;5054524;28;20134;-73
2022/07/26 09:19:35;;;;;;;29.05;26.92;;;;;;;53.25;nan;98897.06;5054625;28;20127;-73
2022/07/26 09:22:09;;;;;;;31.35;28.75;;;;;;;54.21;nan;98898.56;5036211;28;20494;-72
2022/07/26 09:24:39;;;;;;;31.77;29.30;;;;;;;54.52;nan;98888.16;5054415;28;20040;-74
2022/07/26 09:27:06;;;;;;;36.33;34.00;;;;;;;55.11;nan;98894.47;5054538;28;20044;-74
2022/07/26 09:29:47;;;;;;;37.45;34.80;;;;;;;55.57;nan;98916.75;5031530;28;20084;-74
2022/07/26 09:32:19;;;;;;;35.25;33.08;;;;;;;55.31;nan;98898.28;5032104;28;20083;-74
2022/07/26 09:34:49;;;;;;;32.80;30.90;;;;;;;55.18;nan;98885.84;4998875;28;20095;-73
2022/07/26 09:37:15;;;;;;;37.88;35.67;;;;;;;55.24;nan;98891.88;5032179;28;20152;-71
2022/07/26 09:39:57;;;;;;;35.55;33.33;;;;;;;54.35;nan;98889.91;4998792;28;20098;-71
2022/07/26 09:42:26;;;;;;;30.85;28.95;;;;;;;51.93;nan;98874.81;5033993;28;20050;-70
2022/07/26 09:44:52;;;;;;;29.50;27.60;;;;;;;51.53;nan;98843.41;5033711;28;20048;-69
2022/07/26 09:47:17;;;;;;;24.85;23.20;;;;;;;50.17;nan;98843.00;5038480;28;20059;-71
2022/07/26 09:49:42;;;;;;;22.35;20.88;;;;;;;48.73;nan;98827.56;5030718;28;20132;-72
2022/07/26 09:52:33;;;;;;;23.65;22.10;;;;;;;49.84;nan;98840.25;5015117;28;20149;-72
2022/07/26 09:55:04;;;;;;;22.25;20.73;;;;;;;50.28;nan;98831.75;5013175;28;20462;-72
2022/07/26 09:57:29;;;;;;;20.97;19.23;;;;;;;50.99;nan;98835.91;5015316;28;20522;-73
2022/07/26 09:59:54;;;;;;;21.88;20.27;;;;;;;50.97;nan;98824.13;5020196;28;20294;-72
2022/07/26 10:02:19;;;;;;;23.70;21.83;;;;;;;51.32;nan;98832.00;5019302;28;20089;-72
2022/07/26 10:04:44;;;;;;;23.52;21.73;;;;;;;50.78;nan;98833.75;5037169;28;20075;-73
2022/07/26 10:07:09;;;;;;;23.00;21.38;;;;;;;49.01;nan;98835.63;5037255;28;20067;-71
2022/07/26 10:09:47;;;;;;;21.23;19.45;;;;;;;46.74;nan;98833.47;5037683;28;20123;-71
2022/07/26 10:12:15;;;;;;;17.17;15.88;;;;;;;44.48;nan;98832.44;5002559;28;20094;-70
2022/07/26 10:14:45;;;;;;;17.17;15.73;;;;;;;44.91;nan;98826.19;5036946;28;20068;-70
2022/07/26 10:17:28;;;;;;;18.33;16.88;;;;;;;46.93;nan;98828.69;5036774;28;20514;-71
2022/07/26 10:19:54;;;;;;;17.92;16.33;;;;;;;46.88;nan;98828.16;5041768;28;20406;-70
2022/07/26 10:22:30;;;;;;;15.60;14.38;;;;;;;45.81;nan;98825.53;5057061;28;20058;-70
2022/07/26 10:25:16;;;;;;;15.75;14.55;;;;;;;45.38;nan;98826.34;5058016;28;20062;-71
2022/07/26 10:27:42;;;;;;;16.25;14.80;;;;;;;45.77;nan;98823.81;5039208;28;20052;-69
2022/07/26 10:30:16;;;;;;;16.08;14.60;;;;;;;44.83;nan;98825.13;5058487;28;20135;-70
2022/07/26 10:32:51;;;;;;;15.88;14.43;;;;;;;43.09;nan;98813.53;5038517;28;20052;-69
2022/07/26 10:35:37;;;;;;;13.60;12.45;;;;;;;42.01;nan;98818.00;5056990;28;20043;-68
2022/07/26 10:38:04;;;;;;;13.40;12.02;;;;;;;40.33;nan;98804.28;5057141;28;20075;-69
2022/07/26 10:40:30;;;;;;;13.77;12.48;;;;;;;39.03;nan;98814.75;5056567;28;20040;-70
2022/07/26 10:43:15;;;;;;;13.20;12.00;;;;;;;38.30;nan;98801.03;5056485;28;20556;-69
2022/07/26 10:45:41;;;;;;;12.77;11.43;;;;;;;37.10;nan;98792.69;5038892;28;20439;-70
2022/07/26 10:48:19;;;;;;;12.65;11.45;;;;;;;36.72;nan;98789.97;5038562;28;20043;-70
2022/07/26 10:50:46;;;;;;;13.27;11.98;;;;;;;36.06;nan;98783.63;5038275;28;20044;-70
2022/07/26 10:53:22;;;;;;;12.98;11.57;;;;;;;35.83;nan;98785.28;5056340;28;20040;-69
2022/07/26 10:55:49;;;;;;;11.60;10.48;;;;;;;35.38;nan;98786.56;5056452;28;20111;-72
2022/07/26 10:58:15;;;;;;;12.25;11.05;;;;;;;35.14;nan;98787.31;5055338;28;20135;-69
2022/07/26 11:00:39;;;;;;;17.45;12.52;;;;;;;34.81;nan;98775.13;5056119;28;20046;-71
2022/07/26 11:03:04;;;;;;;13.45;12.05;;;;;;;34.51;nan;98778.09;5056847;28;20044;-71
2022/07/26 11:05:32;;;;;;;13.65;11.32;;;;;;;34.14;nan;98776.59;5038566;28;20437;-71
2022/07/26 11:08:09;;;;;;;15.57;12.13;;;;;;;33.87;nan;98770.59;5056310;28;20117;-69
2022/07/26 11:10:36;;;;;;;14.68;13.27;;;;;;;33.58;nan;98775.09;5038344;28;20174;-71
2022/07/26 11:13:02;;;;;;;14.93;12.90;;;;;;;33.28;nan;98771.31;5056548;28;20490;-70
2022/07/26 11:15:27;;;;;;;15.18;12.15;;;;;;;33.11;nan;98760.50;5037809;28;20040;-68
2022/07/26 11:18:14;;;;;;;13.50;12.05;;;;;;;33.14;nan;98770.16;5021166;28;20116;-70
2022/07/26 11:20:41;;;;;;;14.98;12.50;;;;;;;32.88;nan;98774.03;5037981;28;20071;-70
2022/07/26 11:23:33;;;;;;;13.02;11.63;;;;;;;32.93;nan;98769.34;5038087;28;20043;-71
2022/07/26 11:26:10;;;;;;;12.88;11.57;;;;;;;32.85;nan;98758.00;5020996;28;20082;-70
2022/07/26 11:28:46;;;;;;;12.73;11.43;;;;;;;32.91;nan;98762.44;5055827;28;20052;-71